sensor_id;sensor_type;location;lat;lon;timestamp;pressure;altitude;pressure_sealevel;temperature;humidity
68117;BME280;54909;54.464;18.498;2024-03-23T00:56:04;100400;;;8.05;91
68117;BME280;54909;54.464;18.498;2024-03-23T00:59:12;100400;;;7.94;91
68117;BME280;54909;54.464;18.498;2024-03-23T01:02:14;100400;;;7.97;91
68117;BME280;54909;54.464;18.498;2024-03-23T01:05:15;100400;;;7.93;91
68117;BME280;54909;54.464;18.498;2024-03-23T01:08:22;100400;;;7.92;91
68117;BME280;54909;54.464;18.498;2024-03-23T01:11:23;100400;;;7.94;91
68117;BME280;54909;54.464;18.498;2024-03-23T01:14:24;100400;;;8.01;91
68117;BME280;54909;54.464;18.498;2024-03-23T01:17:32;100400;;;8.01;91
68117;BME280;54909;54.464;18.498;2024-03-23T01:20:34;100400;;;7.99;91
68117;BME280;54909;54.464;18.498;2024-03-23T01:23:35;100400;;;7.98;91
68117;BME280;54909;54.464;18.498;2024-03-23T01:26:43;100400;;;7.95;91
68117;BME280;54909;54.464;18.498;2024-03-23T01:29:44;100400;;;7.90;91
68117;BME280;54909;54.464;18.498;2024-03-23T01:32:45;100400;;;7.94;91
68117;BME280;54909;54.464;18.498;2024-03-23T01:35:54;100400;;;7.91;91
68117;BME280;54909;54.464;18.498;2024-03-23T01:38:55;100400;;;7.87;91
68117;BME280;54909;54.464;18.498;2024-03-23T01:41:56;100400;;;7.83;91
68117;BME280;54909;54.464;18.498;2024-03-23T01:45:08;100400;;;7.80;91
68117;BME280;54909;54.464;18.498;2024-03-23T01:48:10;100400;;;7.83;91
68117;BME280;54909;54.464;18.498;2024-03-23T01:51:13;100400;;;7.88;91
68117;BME280;54909;54.464;18.498;2024-03-23T01:54:15;100400;;;7.88;91
68117;BME280;54909;54.464;18.498;2024-03-23T01:57:17;100400;;;7.83;91
68117;BME280;54909;54.464;18.498;2024-03-23T02:00:18;100400;;;7.84;90
68117;BME280;54909;54.464;18.498;2024-03-23T02:03:28;100400;;;7.85;90
68117;BME280;54909;54.464;18.498;2024-03-23T02:06:29;100400;;;7.91;90
68117;BME280;54909;54.464;18.498;2024-03-23T02:09:30;100400;;;7.90;90
68117;BME280;54909;54.464;18.498;2024-03-23T02:12:34;100400;;;7.86;90
68117;BME280;54909;54.464;18.498;2024-03-23T02:15:36;100400;;;7.78;90
68117;BME280;54909;54.464;18.498;2024-03-23T02:18:37;100400;;;7.78;90
68117;BME280;54909;54.464;18.498;2024-03-23T02:21:44;100400;;;7.80;90
68117;BME280;54909;54.464;18.498;2024-03-23T02:24:48;100400;;;7.74;90
68117;BME280;54909;54.464;18.498;2024-03-23T02:27:49;100400;;;7.76;90
68117;BME280;54909;54.464;18.498;2024-03-23T02:30:55;100400;;;7.83;90
68117;BME280;54909;54.464;18.498;2024-03-23T02:33:56;100400;;;7.88;90
68117;BME280;54909;54.464;18.498;2024-03-23T02:36:57;100400;;;7.86;89
68117;BME280;54909;54.464;18.498;2024-03-23T02:40:07;100400;;;7.87;89
68117;BME280;54909;54.464;18.498;2024-03-23T02:43:08;100400;;;7.88;89
68117;BME280;54909;54.464;18.498;2024-03-23T02:46:09;100400;;;7.91;89
68117;BME280;54909;54.464;18.498;2024-03-23T02:49:16;100400;;;7.92;89
68117;BME280;54909;54.464;18.498;2024-03-23T02:52:17;100400;;;7.94;89
68117;BME280;54909;54.464;18.498;2024-03-23T02:55:18;100300;;;7.96;89
68117;BME280;54909;54.464;18.498;2024-03-23T02:58:26;100300;;;7.94;89
68117;BME280;54909;54.464;18.498;2024-03-23T03:01:27;100300;;;7.96;89
68117;BME280;54909;54.464;18.498;2024-03-23T03:04:29;100300;;;7.93;89
68117;BME280;54909;54.464;18.498;2024-03-23T03:07:37;100300;;;7.89;89
68117;BME280;54909;54.464;18.498;2024-03-23T03:10:41;100400;;;7.89;89
68117;BME280;54909;54.464;18.498;2024-03-23T03:13:42;100400;;;7.88;89
68117;BME280;54909;54.464;18.498;2024-03-23T03:16:49;100400;;;7.84;89
68117;BME280;54909;54.464;18.498;2024-03-23T03:19:50;100300;;;7.84;89
68117;BME280;54909;54.464;18.498;2024-03-23T03:22:56;100300;;;7.78;89
68117;BME280;54909;54.464;18.498;2024-03-23T03:25:59;100300;;;7.80;89
68117;BME280;54909;54.464;18.498;2024-03-23T03:29:00;100300;;;7.75;89
68117;BME280;54909;54.464;18.498;2024-03-23T03:32:02;100300;;;7.76;90
68117;BME280;54909;54.464;18.498;2024-03-23T03:35:09;100300;;;7.76;90
68117;BME280;54909;54.464;18.498;2024-03-23T03:38:10;100300;;;7.77;89
68117;BME280;54909;54.464;18.498;2024-03-23T03:41:11;100300;;;7.78;89
68117;BME280;54909;54.464;18.498;2024-03-23T03:44:19;100300;;;7.80;90
68117;BME280;54909;54.464;18.498;2024-03-23T03:47:20;100300;;;7.79;89
68117;BME280;54909;54.464;18.498;2024-03-23T03:50:22;100300;;;7.78;90
68117;BME280;54909;54.464;18.498;2024-03-23T03:53:29;100300;;;7.75;90
68117;BME280;54909;54.464;18.498;2024-03-23T03:56:31;100300;;;7.69;90
68117;BME280;54909;54.464;18.498;2024-03-23T03:59:32;100300;;;7.70;90
68117;BME280;54909;54.464;18.498;2024-03-23T04:02:40;100300;;;7.66;90
68117;BME280;54909;54.464;18.498;2024-03-23T04:05:41;100300;;;7.59;90
68117;BME280;54909;54.464;18.498;2024-03-23T04:08:42;100300;;;7.51;90
68117;BME280;54909;54.464;18.498;2024-03-23T04:11:49;100300;;;7.44;91
68117;BME280;54909;54.464;18.498;2024-03-23T04:14:50;100300;;;7.40;91
68117;BME280;54909;54.464;18.498;2024-03-23T04:17:51;100300;;;7.37;91
68117;BME280;54909;54.464;18.498;2024-03-23T04:20:59;100300;;;7.30;91
68117;BME280;54909;54.464;18.498;2024-03-23T04:24:00;100300;;;7.22;92
68117;BME280;54909;54.464;18.498;2024-03-23T04:27:02;100300;;;7.17;92
68117;BME280;54909;54.464;18.498;2024-03-23T04:30:11;100300;;;7.13;92
68117;BME280;54909;54.464;18.498;2024-03-23T04:33:12;100300;;;7.12;92
68117;BME280;54909;54.464;18.498;2024-03-23T04:36:14;100300;;;7.15;92
68117;BME280;54909;54.464;18.498;2024-03-23T04:39:20;100300;;;7.21;92
68117;BME280;54909;54.464;18.498;2024-03-23T04:42:21;100300;;;7.28;92
68117;BME280;54909;54.464;18.498;2024-03-23T04:45:23;100300;;;7.30;92
68117;BME280;54909;54.464;18.498;2024-03-23T04:48:31;100300;;;7.36;92
68117;BME280;54909;54.464;18.498;2024-03-23T04:51:36;100300;;;7.41;91
68117;BME280;54909;54.464;18.498;2024-03-23T04:54:45;100300;;;7.47;91
68117;BME280;54909;54.464;18.498;2024-03-23T04:57:46;100300;;;7.56;91
68117;BME280;54909;54.464;18.498;2024-03-23T05:00:48;100300;;;7.68;91
68117;BME280;54909;54.464;18.498;2024-03-23T05:03:50;100300;;;7.74;90
68117;BME280;54909;54.464;18.498;2024-03-23T05:06:55;100300;;;7.78;90
68117;BME280;54909;54.464;18.498;2024-03-23T05:09:56;100300;;;7.84;90
68117;BME280;54909;54.464;18.498;2024-03-23T05:12:57;100300;;;7.89;90
68117;BME280;54909;54.464;18.498;2024-03-23T05:16:06;100300;;;7.85;89
68117;BME280;54909;54.464;18.498;2024-03-23T05:19:07;100300;;;7.82;90
68117;BME280;54909;54.464;18.498;2024-03-23T05:22:08;100300;;;7.79;90
68117;BME280;54909;54.464;18.498;2024-03-23T05:25:17;100300;;;7.79;90
68117;BME280;54909;54.464;18.498;2024-03-23T05:28:18;100300;;;7.81;89
68117;BME280;54909;54.464;18.498;2024-03-23T05:31:27;100300;;;7.86;89
68117;BME280;54909;54.464;18.498;2024-03-23T05:34:28;100300;;;7.84;89
68117;BME280;54909;54.464;18.498;2024-03-23T05:37:30;100300;;;7.89;89
68117;BME280;54909;54.464;18.498;2024-03-23T05:40:34;100300;;;7.99;89
68117;BME280;54909;54.464;18.498;2024-03-23T05:43:40;100300;;;8.03;88
68117;BME280;54909;54.464;18.498;2024-03-23T05:46:41;100200;;;8.09;88
68117;BME280;54909;54.464;18.498;2024-03-23T05:49:43;100200;;;8.12;88
68117;BME280;54909;54.464;18.498;2024-03-23T05:52:49;100200;;;8.12;88
68117;BME280;54909;54.464;18.498;2024-03-23T05:55:51;100200;;;8.16;88
68117;BME280;54909;54.464;18.498;2024-03-23T05:58:54;100200;;;8.16;88
68117;BME280;54909;54.464;18.498;2024-03-23T06:01:58;100200;;;8.16;88
68117;BME280;54909;54.464;18.498;2024-03-23T06:04:59;100200;;;8.18;87
68117;BME280;54909;54.464;18.498;2024-03-23T06:08:01;100200;;;8.22;87
68117;BME280;54909;54.464;18.498;2024-03-23T06:11:09;100200;;;8.16;87
68117;BME280;54909;54.464;18.498;2024-03-23T06:14:10;100200;;;8.22;86
68117;BME280;54909;54.464;18.498;2024-03-23T06:17:11;100200;;;8.25;86
68117;BME280;54909;54.464;18.498;2024-03-23T06:20:20;100200;;;8.17;86
68117;BME280;54909;54.464;18.498;2024-03-23T06:23:21;100200;;;8.19;86
68117;BME280;54909;54.464;18.498;2024-03-23T06:26:22;100200;;;8.22;86
68117;BME280;54909;54.464;18.498;2024-03-23T06:29:30;100200;;;8.24;86
68117;BME280;54909;54.464;18.498;2024-03-23T06:32:32;100200;;;8.24;86
68117;BME280;54909;54.464;18.498;2024-03-23T06:35:34;100200;;;8.23;86
68117;BME280;54909;54.464;18.498;2024-03-23T06:38:41;100200;;;8.25;86
68117;BME280;54909;54.464;18.498;2024-03-23T06:41:43;100200;;;8.23;85
68117;BME280;54909;54.464;18.498;2024-03-23T06:44:44;100200;;;8.27;85
68117;BME280;54909;54.464;18.498;2024-03-23T06:47:52;100200;;;8.20;85
68117;BME280;54909;54.464;18.498;2024-03-23T06:50:59;100200;;;8.24;85
68117;BME280;54909;54.464;18.498;2024-03-23T06:54:00;100200;;;8.25;85
68117;BME280;54909;54.464;18.498;2024-03-23T06:57:02;100200;;;8.37;85
68117;BME280;54909;54.464;18.498;2024-03-23T07:00:04;100200;;;8.35;84
68117;BME280;54909;54.464;18.498;2024-03-23T07:03:10;100200;;;8.39;85
68117;BME280;54909;54.464;18.498;2024-03-23T07:06:13;100200;;;8.35;84
68117;BME280;54909;54.464;18.498;2024-03-23T07:09:14;100200;;;8.32;84
68117;BME280;54909;54.464;18.498;2024-03-23T07:12:15;100200;;;8.36;84
68117;BME280;54909;54.464;18.498;2024-03-23T07:15:24;100200;;;8.26;84
68117;BME280;54909;54.464;18.498;2024-03-23T07:18:25;100200;;;8.18;84
68117;BME280;54909;54.464;18.498;2024-03-23T07:23:33;100200;;;8.28;84
68117;BME280;54909;54.464;18.498;2024-03-23T07:26:35;100200;;;8.40;83
68117;BME280;54909;54.464;18.498;2024-03-23T07:29:42;100200;;;8.43;83
68117;BME280;54909;54.464;18.498;2024-03-23T07:32:46;100200;;;8.60;83
68117;BME280;54909;54.464;18.498;2024-03-23T07:35:47;100200;;;8.55;82
68117;BME280;54909;54.464;18.498;2024-03-23T07:38:52;100200;;;8.55;83
68117;BME280;54909;54.464;18.498;2024-03-23T07:41:54;100200;;;8.60;82
68117;BME280;54909;54.464;18.498;2024-03-23T07:44:55;100200;;;8.63;83
68117;BME280;54909;54.464;18.498;2024-03-23T07:48:02;100200;;;8.86;82
68117;BME280;54909;54.464;18.498;2024-03-23T07:51:15;100200;;;8.94;81
68117;BME280;54909;54.464;18.498;2024-03-23T07:54:14;100200;;;8.91;81
68117;BME280;54909;54.464;18.498;2024-03-23T07:57:15;100200;;;8.78;81
68117;BME280;54909;54.464;18.498;2024-03-23T08:00:17;100200;;;8.72;81
68117;BME280;54909;54.464;18.498;2024-03-23T08:03:18;100200;;;8.77;81
68117;BME280;54909;54.464;18.498;2024-03-23T08:06:22;100200;;;8.86;81
68117;BME280;54909;54.464;18.498;2024-03-23T08:09:24;100200;;;8.91;81
68117;BME280;54909;54.464;18.498;2024-03-23T08:12:25;100200;;;8.96;81
68117;BME280;54909;54.464;18.498;2024-03-23T08:15:33;100200;;;9.04;80
68117;BME280;54909;54.464;18.498;2024-03-23T08:18:34;100200;;;9.11;81
68117;BME280;54909;54.464;18.498;2024-03-23T08:21:36;100200;;;9.12;80
68117;BME280;54909;54.464;18.498;2024-03-23T08:24:44;100200;;;9.21;81
68117;BME280;54909;54.464;18.498;2024-03-23T08:27:45;100200;;;9.32;80
68117;BME280;54909;54.464;18.498;2024-03-23T08:30:46;100200;;;9.36;80
68117;BME280;54909;54.464;18.498;2024-03-23T08:33:55;100200;;;9.53;80
68117;BME280;54909;54.464;18.498;2024-03-23T08:36:56;100200;;;9.51;79
68117;BME280;54909;54.464;18.498;2024-03-23T08:39:57;100200;;;9.57;78
68117;BME280;54909;54.464;18.498;2024-03-23T08:43:07;100200;;;9.47;78
68117;BME280;54909;54.464;18.498;2024-03-23T08:46:12;100200;;;9.54;78
68117;BME280;54909;54.464;18.498;2024-03-23T08:49:14;100200;;;9.56;78
68117;BME280;54909;54.464;18.498;2024-03-23T08:52:18;100200;;;9.79;77
68117;BME280;54909;54.464;18.498;2024-03-23T08:55:19;100200;;;9.96;77
68117;BME280;54909;54.464;18.498;2024-03-23T08:58:20;100100;;;9.97;75
68117;BME280;54909;54.464;18.498;2024-03-23T09:01:27;100100;;;9.96;76
68117;BME280;54909;54.464;18.498;2024-03-23T09:04:28;100100;;;10.01;76
68117;BME280;54909;54.464;18.498;2024-03-23T09:07:33;100100;;;10.14;76
68117;BME280;54909;54.464;18.498;2024-03-23T09:10:40;100100;;;10.20;75
68117;BME280;54909;54.464;18.498;2024-03-23T09:13:41;100100;;;10.08;75
68117;BME280;54909;54.464;18.498;2024-03-23T09:16:42;100100;;;9.74;75
68117;BME280;54909;54.464;18.498;2024-03-23T09:19:46;100100;;;9.37;76
68117;BME280;54909;54.464;18.498;2024-03-23T09:22:50;100100;;;9.34;78
68117;BME280;54909;54.464;18.498;2024-03-23T09:25:52;100100;;;9.35;77
68117;BME280;54909;54.464;18.498;2024-03-23T09:28:56;100100;;;9.53;77
68117;BME280;54909;54.464;18.498;2024-03-23T09:31:57;100100;;;9.67;76
68117;BME280;54909;54.464;18.498;2024-03-23T09:34:58;100100;;;9.75;75
68117;BME280;54909;54.464;18.498;2024-03-23T09:38:05;100100;;;9.81;75
68117;BME280;54909;54.464;18.498;2024-03-23T09:41:09;100100;;;9.95;75
68117;BME280;54909;54.464;18.498;2024-03-23T09:44:12;100100;;;9.96;75
68117;BME280;54909;54.464;18.498;2024-03-23T09:47:15;100100;;;10.06;75
68117;BME280;54909;54.464;18.498;2024-03-23T09:50:16;100100;;;10.15;75
68117;BME280;54909;54.464;18.498;2024-03-23T09:53:18;100100;;;10.07;73
68117;BME280;54909;54.464;18.498;2024-03-23T09:56:25;100100;;;10.06;74
68117;BME280;54909;54.464;18.498;2024-03-23T09:59:26;100100;;;10.02;74
68117;BME280;54909;54.464;18.498;2024-03-23T10:02:28;100100;;;9.99;74
68117;BME280;54909;54.464;18.498;2024-03-23T10:05:34;100100;;;10.01;74
68117;BME280;54909;54.464;18.498;2024-03-23T10:08:35;100100;;;10.10;74
68117;BME280;54909;54.464;18.498;2024-03-23T10:11:36;100100;;;10.31;72
68117;BME280;54909;54.464;18.498;2024-03-23T10:14:44;100100;;;10.59;70
68117;BME280;54909;54.464;18.498;2024-03-23T10:17:46;100100;;;10.62;70
68117;BME280;54909;54.464;18.498;2024-03-23T10:24:07;100100;;;10.57;69
68117;BME280;54909;54.464;18.498;2024-03-23T10:27:09;100100;;;10.61;70
68117;BME280;54909;54.464;18.498;2024-03-23T10:30:12;100100;;;10.68;69
68117;BME280;54909;54.464;18.498;2024-03-23T10:33:15;100100;;;10.63;69
68117;BME280;54909;54.464;18.498;2024-03-23T10:36:19;100100;;;10.79;68
68117;BME280;54909;54.464;18.498;2024-03-23T10:39:21;100000;;;10.91;67
68117;BME280;54909;54.464;18.498;2024-03-23T10:42:24;100100;;;10.99;67
68117;BME280;54909;54.464;18.498;2024-03-23T10:45:25;100100;;;10.91;67
68117;BME280;54909;54.464;18.498;2024-03-23T10:48:27;100100;;;10.86;68
68117;BME280;54909;54.464;18.498;2024-03-23T10:51:28;100100;;;10.78;67
68117;BME280;54909;54.464;18.498;2024-03-23T10:54:31;100100;;;10.84;67
68117;BME280;54909;54.464;18.498;2024-03-23T11:00:45;100100;;;10.79;66
68117;BME280;54909;54.464;18.498;2024-03-23T11:03:46;100100;;;10.87;66
68117;BME280;54909;54.464;18.498;2024-03-23T11:06:48;100100;;;10.84;66
68117;BME280;54909;54.464;18.498;2024-03-23T11:09:50;100100;;;10.95;66
68117;BME280;54909;54.464;18.498;2024-03-23T11:12:53;100100;;;10.98;67
68117;BME280;54909;54.464;18.498;2024-03-23T11:15:55;100000;;;11.08;67
68117;BME280;54909;54.464;18.498;2024-03-23T11:25:29;100000;;;11.03;65
68117;BME280;54909;54.464;18.498;2024-03-23T11:28:30;100000;;;11.04;64
68117;BME280;54909;54.464;18.498;2024-03-23T11:31:31;100000;;;11.06;63
68117;BME280;54909;54.464;18.498;2024-03-23T11:34:34;100000;;;11.05;64
68117;BME280;54909;54.464;18.498;2024-03-23T11:37:37;100000;;;11.36;63
68117;BME280;54909;54.464;18.498;2024-03-23T11:40:40;100000;;;11.50;62
68117;BME280;54909;54.464;18.498;2024-03-23T11:43:41;100000;;;11.36;59
68117;BME280;54909;54.464;18.498;2024-03-23T11:46:43;100000;;;11.42;58
68117;BME280;54909;54.464;18.498;2024-03-23T11:49:48;100000;;;11.43;58
68117;BME280;54909;54.464;18.498;2024-03-23T11:52:49;100000;;;11.46;57
68117;BME280;54909;54.464;18.498;2024-03-23T11:55:52;100000;;;11.55;57
68117;BME280;54909;54.464;18.498;2024-03-23T11:58:55;100000;;;11.72;56
68117;BME280;54909;54.464;18.498;2024-03-23T12:01:56;100000;;;11.87;56
68117;BME280;54909;54.464;18.498;2024-03-23T12:04:58;100000;;;11.99;54
68117;BME280;54909;54.464;18.498;2024-03-23T12:11:18;100000;;;12.21;54
68117;BME280;54909;54.464;18.498;2024-03-23T12:14:20;100000;;;12.18;54
68117;BME280;54909;54.464;18.498;2024-03-23T12:17:21;100000;;;12.11;54
68117;BME280;54909;54.464;18.498;2024-03-23T12:20:23;100000;;;12.00;55
68117;BME280;54909;54.464;18.498;2024-03-23T12:23:24;100000;;;11.83;55
68117;BME280;54909;54.464;18.498;2024-03-23T12:26:25;100000;;;11.87;54
68117;BME280;54909;54.464;18.498;2024-03-23T12:29:28;100000;;;12.02;55
68117;BME280;54909;54.464;18.498;2024-03-23T12:32:29;100000;;;11.97;56
68117;BME280;54909;54.464;18.498;2024-03-23T12:35:32;100000;;;11.78;57
68117;BME280;54909;54.464;18.498;2024-03-23T12:38:34;100000;;;11.52;57
68117;BME280;54909;54.464;18.498;2024-03-23T12:41:35;100000;;;11.63;58
68117;BME280;54909;54.464;18.498;2024-03-23T12:44:42;100000;;;11.76;57
68117;BME280;54909;54.464;18.498;2024-03-23T12:47:43;0;;;11.83;56
68117;BME280;54909;54.464;18.498;2024-03-23T12:50:44;100000;;;11.96;54
68117;BME280;54909;54.464;18.498;2024-03-23T12:53:51;0;;;12.27;54
68117;BME280;54909;54.464;18.498;2024-03-23T12:56:52;0;;;12.62;59
68117;BME280;54909;54.464;18.498;2024-03-23T12:59:54;0;;;12.67;62
68117;BME280;54909;54.464;18.498;2024-03-23T13:03:01;0;;;12.42;63
68117;BME280;54909;54.464;18.498;2024-03-23T13:06:02;0;;;12.07;65
68117;BME280;54909;54.464;18.498;2024-03-23T13:09:09;0;;;11.80;66
68117;BME280;54909;54.464;18.498;2024-03-23T13:12:11;0;;;11.61;67
68117;BME280;54909;54.464;18.498;2024-03-23T13:15:16;0;;;11.51;67
68117;BME280;54909;54.464;18.498;2024-03-23T13:18:20;0;;;11.47;67
68117;BME280;54909;54.464;18.498;2024-03-23T13:21:21;0;;;11.48;68
68117;BME280;54909;54.464;18.498;2024-03-23T13:24:25;0;;;11.38;67
68117;BME280;54909;54.464;18.498;2024-03-23T13:27:26;0;;;11.19;68
68117;BME280;54909;54.464;18.498;2024-03-23T13:30:32;100000;;;11.20;68
68117;BME280;54909;54.464;18.498;2024-03-23T13:33:33;0;;;11.22;68
68117;BME280;54909;54.464;18.498;2024-03-23T13:36:34;0;;;11.21;68
68117;BME280;54909;54.464;18.498;2024-03-23T13:39:41;100000;;;11.16;68
68117;BME280;54909;54.464;18.498;2024-03-23T13:42:42;0;;;11.08;68
68117;BME280;54909;54.464;18.498;2024-03-23T13:45:44;0;;;10.99;68
68117;BME280;54909;54.464;18.498;2024-03-23T13:48:51;0;;;10.89;69
68117;BME280;54909;54.464;18.498;2024-03-23T13:51:54;0;;;10.76;69
68117;BME280;54909;54.464;18.498;2024-03-23T13:54:55;0;;;10.63;70
68117;BME280;54909;54.464;18.498;2024-03-23T13:58:02;100000;;;10.54;71
68117;BME280;54909;54.464;18.498;2024-03-23T14:01:03;100000;;;10.48;71
68117;BME280;54909;54.464;18.498;2024-03-23T14:04:04;100000;;;10.38;71
68117;BME280;54909;54.464;18.498;2024-03-23T14:07:11;100000;;;10.29;71
68117;BME280;54909;54.464;18.498;2024-03-23T14:10:13;100000;;;10.09;72
68117;BME280;54909;54.464;18.498;2024-03-23T14:13:14;100000;;;9.92;73
68117;BME280;54909;54.464;18.498;2024-03-23T14:16:22;0;;;9.83;74
68117;BME280;54909;54.464;18.498;2024-03-23T14:19:23;0;;;9.71;76
68117;BME280;54909;54.464;18.498;2024-03-23T14:22:24;0;;;9.66;77
68117;BME280;54909;54.464;18.498;2024-03-23T14:25:32;0;;;9.51;75
68117;BME280;54909;54.464;18.498;2024-03-23T14:28:33;0;;;9.38;76
68117;BME280;54909;54.464;18.498;2024-03-23T14:31:35;0;;;9.32;76
68117;BME280;54909;54.464;18.498;2024-03-23T14:34:43;0;;;9.28;76
68117;BME280;54909;54.464;18.498;2024-03-23T14:37:44;0;;;9.29;76
68117;BME280;54909;54.464;18.498;2024-03-23T14:40:48;100000;;;9.32;76
68117;BME280;54909;54.464;18.498;2024-03-23T14:43:54;0;;;9.39;76
68117;BME280;54909;54.464;18.498;2024-03-23T14:46:55;100000;;;9.42;76
68117;BME280;54909;54.464;18.498;2024-03-23T14:49:57;100000;;;9.47;76
68117;BME280;54909;54.464;18.498;2024-03-23T14:53:04;100000;;;9.54;76
68117;BME280;54909;54.464;18.498;2024-03-23T14:56:06;100000;;;9.56;76
68117;BME280;54909;54.464;18.498;2024-03-23T14:59:08;100000;;;9.56;76
68117;BME280;54909;54.464;18.498;2024-03-23T15:02:16;100000;;;9.51;75
68117;BME280;54909;54.464;18.498;2024-03-23T15:05:17;100000;;;9.48;75
68117;BME280;54909;54.464;18.498;2024-03-23T15:08:18;100000;;;9.45;76
68117;BME280;54909;54.464;18.498;2024-03-23T15:11:25;100000;;;9.42;75
68117;BME280;54909;54.464;18.498;2024-03-23T15:14:27;100000;;;9.44;75
68117;BME280;54909;54.464;18.498;2024-03-23T15:17:28;100000;;;9.43;75
68117;BME280;54909;54.464;18.498;2024-03-23T15:20:37;100000;;;9.41;76
68117;BME280;54909;54.464;18.498;2024-03-23T15:23:39;100000;;;9.39;76
68117;BME280;54909;54.464;18.498;2024-03-23T15:26:42;100000;;;9.37;76
68117;BME280;54909;54.464;18.498;2024-03-23T15:29:48;100000;;;9.35;76
68117;BME280;54909;54.464;18.498;2024-03-23T15:32:49;100000;;;9.31;76
68117;BME280;54909;54.464;18.498;2024-03-23T15:35:50;100000;;;9.25;76
68117;BME280;54909;54.464;18.498;2024-03-23T15:38:58;100000;;;9.21;76
68117;BME280;54909;54.464;18.498;2024-03-23T15:41:59;100000;;;9.14;76
68117;BME280;54909;54.464;18.498;2024-03-23T15:45:00;100000;;;9.12;77
68117;BME280;54909;54.464;18.498;2024-03-23T15:48:10;100000;;;9.12;77
68117;BME280;54909;54.464;18.498;2024-03-23T15:51:11;100000;;;9.09;77
68117;BME280;54909;54.464;18.498;2024-03-23T15:54:12;100000;;;9.02;77
68117;BME280;54909;54.464;18.498;2024-03-23T15:57:20;100000;;;8.98;77
68117;BME280;54909;54.464;18.498;2024-03-23T16:00:22;100000;;;8.93;76
68117;BME280;54909;54.464;18.498;2024-03-23T16:07:09;100000;;;8.64;70
68117;BME280;54909;54.464;18.498;2024-03-23T16:10:10;100000;;;8.46;69
68117;BME280;54909;54.464;18.498;2024-03-23T16:13:13;100000;;;8.44;68
68117;BME280;54909;54.464;18.498;2024-03-23T16:16:14;100000;;;8.32;67
68117;BME280;54909;54.464;18.498;2024-03-23T16:19:16;100000;;;8.28;67
68117;BME280;54909;54.464;18.498;2024-03-23T16:22:20;100000;;;8.29;68
68117;BME280;54909;54.464;18.498;2024-03-23T16:25:22;100000;;;8.21;68
68117;BME280;54909;54.464;18.498;2024-03-23T16:28:32;100000;;;7.95;68
68117;BME280;54909;54.464;18.498;2024-03-23T16:31:34;100000;;;7.92;68
68117;BME280;54909;54.464;18.498;2024-03-23T16:34:35;100000;;;7.80;69
68117;BME280;54909;54.464;18.498;2024-03-23T16:37:37;100000;;;7.92;69
68117;BME280;54909;54.464;18.498;2024-03-23T16:43:54;100000;;;7.98;68
68117;BME280;54909;54.464;18.498;2024-03-23T16:46:55;100000;;;7.90;68
68117;BME280;54909;54.464;18.498;2024-03-23T16:49:57;100000;;;7.84;68
68117;BME280;54909;54.464;18.498;2024-03-23T16:52:59;100000;;;7.83;69
68117;BME280;54909;54.464;18.498;2024-03-23T16:56:05;100000;;;7.81;69
68117;BME280;54909;54.464;18.498;2024-03-23T16:59:09;100000;;;7.78;69
68117;BME280;54909;54.464;18.498;2024-03-23T17:02:10;100000;;;7.70;70
68117;BME280;54909;54.464;18.498;2024-03-23T17:05:12;100000;;;7.69;70
68117;BME280;54909;54.464;18.498;2024-03-23T17:08:14;100100;;;7.69;70
68117;BME280;54909;54.464;18.498;2024-03-23T17:11:15;100100;;;7.70;71
68117;BME280;54909;54.464;18.498;2024-03-23T17:14:19;100100;;;7.67;71
68117;BME280;54909;54.464;18.498;2024-03-23T17:17:27;100100;;;7.59;72
68117;BME280;54909;54.464;18.498;2024-03-23T17:20:28;100100;;;7.60;72
68117;BME280;54909;54.464;18.498;2024-03-23T17:23:30;100100;;;7.50;72
68117;BME280;54909;54.464;18.498;2024-03-23T17:26:36;100100;;;7.49;72
68117;BME280;54909;54.464;18.498;2024-03-23T17:29:37;100000;;;7.45;72
68117;BME280;54909;54.464;18.498;2024-03-23T17:32:38;100000;;;7.42;72
68117;BME280;54909;54.464;18.498;2024-03-23T17:35:48;100000;;;7.40;72
68117;BME280;54909;54.464;18.498;2024-03-23T17:38:49;100000;;;7.40;72
68117;BME280;54909;54.464;18.498;2024-03-23T17:41:50;100000;;;7.41;73
68117;BME280;54909;54.464;18.498;2024-03-23T17:44:59;100000;;;7.30;73
68117;BME280;54909;54.464;18.498;2024-03-23T17:48:01;100000;;;7.25;73
68117;BME280;54909;54.464;18.498;2024-03-23T17:51:03;100000;;;7.17;73
68117;BME280;54909;54.464;18.498;2024-03-23T17:54:10;100000;;;7.17;73
68117;BME280;54909;54.464;18.498;2024-03-23T17:57:13;100000;;;7.11;73
68117;BME280;54909;54.464;18.498;2024-03-23T18:00:15;100000;;;7.13;74
68117;BME280;54909;54.464;18.498;2024-03-23T18:03:21;100000;;;7.06;74
68117;BME280;54909;54.464;18.498;2024-03-23T18:06:22;100000;;;7.02;74
68117;BME280;54909;54.464;18.498;2024-03-23T18:09:23;100000;;;7.02;74
68117;BME280;54909;54.464;18.498;2024-03-23T18:12:32;100000;;;6.99;74
68117;BME280;54909;54.464;18.498;2024-03-23T18:15:33;100000;;;6.90;74
68117;BME280;54909;54.464;18.498;2024-03-23T18:18:34;100000;;;6.72;75
68117;BME280;54909;54.464;18.498;2024-03-23T18:21:43;100000;;;6.71;75
68117;BME280;54909;54.464;18.498;2024-03-23T18:24:44;100000;;;6.60;75
68117;BME280;54909;54.464;18.498;2024-03-23T18:27:46;100000;;;6.59;75
68117;BME280;54909;54.464;18.498;2024-03-23T18:30:58;100000;;;6.50;76
68117;BME280;54909;54.464;18.498;2024-03-23T18:34:00;100000;;;6.49;76
68117;BME280;54909;54.464;18.498;2024-03-23T18:37:01;100000;;;6.47;76
68117;BME280;54909;54.464;18.498;2024-03-23T18:40:08;100000;;;6.44;76
68117;BME280;54909;54.464;18.498;2024-03-23T18:43:10;100100;;;6.36;77